MP3/FLAC

‹ prev 2018-02-27 next › 472 release(s) · 30,57 GB · filter: day
Release Group Size Files Date ↓
Nadav_Cohen-Lacuna-WEB-2018-SFH SFH 30,95 MB 8 2018-02-27
Greg_Katona-Nothin_But_Killas-WEB-2018-FURY FURY 9,75 MB 4 2018-02-27
Emrah_Eren--Convex-(505496_0567184)-WEB-2018-dh dh 12,95 MB 4 2018-02-27
Alex_V-Dark_Abyss-WEB-2018-SFH SFH 62,37 MB 7 2018-02-27
Glazba-Slow_It_Down-WEB-2018-FURY FURY 12,11 MB 4 2018-02-27
Lars-Mediterranea___Promenade-WEB-2018-SFH SFH 29,47 MB 6 2018-02-27
Nova_Casa--Curiously_Strong-(RAR07)-WEB-2018-dh dh 11,96 MB 4 2018-02-27
Afternova-A_Love_Story-WEB-2018-SFH SFH 32,27 MB 6 2018-02-27
Richard_Ley-Polyphosphate-WEB-2018-FURY FURY 13,92 MB 4 2018-02-27
Panic_-Space_Journey-WEB-2018-SFH SFH 12,22 MB 5 2018-02-27
Kristodj-A_Thing_Of_Beauty-WEB-2018-SFH SFH 17,32 MB 4 2018-02-27
Saphirsky-Alive_(Emotional_Mix)-WEB-2018-SFH SFH 18,72 MB 4 2018-02-27
Tenere-Tunis-WEB-2018-SFH SFH 7,61 MB 4 2018-02-27
Jaydon_Lewis_feat_Largo_-_Rise-(811250023318)-WEB-2018-ZzZz ZzZz 8,01 MB 4 2018-02-27
Systemic_Noise-Something_New-WEB-2018-SFH SFH 22,52 MB 5 2018-02-27
Systemic_Noise-Something_NEW Something_NEW 22,62 MB 5 2018-02-27
Alex_Wyze-Blutbad-WEB-2018-SFH SFH 7,66 MB 5 2018-02-27
Alba_Moons_-_Prefekt-(EKT140)-WEB-2018-ZzZz ZzZz 6,30 MB 4 2018-02-27
Parkway_Drive-Wishing_Wells-SINGLE-WEB-2018-ENTiTLED ENTiTLED 11,71 MB 5 2018-02-27
Space_Mood-Red_Horizon-WEB-2018-SFH SFH 7,70 MB 4 2018-02-27
Nighk-Chant_Mahamantra-WEB-2018-SFH SFH 8,87 MB 4 2018-02-27
Luke_Pearce-Beyond_Limitation-WEB-2018-SFH SFH 12,08 MB 4 2018-02-27
Fat_Chili_-_BOOM_BOOM_2018-(RU144221)-WEB-2018-ZzZz ZzZz 6,04 MB 4 2018-02-27
Djsmailyk-Imagination-WEB-2018-SFH SFH 9,40 MB 4 2018-02-27
Van_Aiden_and_Fpo-Atlantic-For_You-WEB-2018-SFH SFH 7,59 MB 4 2018-02-27
Third_Quasar-Life_Is_A_Waterfall-WEB-2018-SFH SFH 12,39 MB 4 2018-02-27
VA-Trance_Music_Vol_11-WEB-2018-SFH SFH 151,23 MB 14 2018-02-27
Mighty_Mind-The_Beat_Of_Bastard_With_The_Axe-WEB-2018-FURY FURY 29,93 MB 6 2018-02-27
Discovery_Culture__M_Hustler-Telekines-WEB-2018-FURY FURY 8,76 MB 5 2018-02-27
E-Cletik-The_Chance-WEB-2018-FURY FURY 16,37 MB 5 2018-02-27
Midnight_Storm-Saw_Music-WEB-2011-FALCON FALCON 85,73 MB 8 2018-02-27
Midnight_Storm-The_Awakening-WEB-2013-FALCON FALCON 34,30 MB 5 2018-02-27
Mikrobio-Fake_World-WEB-2018-FURY FURY 18,37 MB 5 2018-02-27
Dimitrios_Bitzenis_-_Danza_V1-(AM4563)-WEB-2018-ZzZz ZzZz 116,90 MB 16 2018-02-27
Korenevskiy-Trance_Fantasy-WEB-2018-SFH SFH 104,53 MB 13 2018-02-27
Jumpstreet_-_Buffer_Boogie-WEB-2018-BarGhest BarGhest 51,31 MB 6 2018-02-27
Markuz-Get_High-WEB-2018-FURY FURY 9,91 MB 4 2018-02-27
Maceo_Parker-Funk_Overload-WEB-1998-ENTiTLED_iNT ENTiTLED_iNT 110,60 MB 15 2018-02-27
Maceo_Parker-Made_By_Maceo-WEB-2003-ENTiTLED_iNT ENTiTLED_iNT 107,64 MB 15 2018-02-27
The_Poppy_Family-A_Good_Thing_Lost_1968-1973-WEB-1996-ENTiTLED ENTiTLED 131,88 MB 24 2018-02-27
Corosun-Nautilus-WEB-2018-SFH SFH 67,65 MB 7 2018-02-27
Malik_Mustache-Champagne-WEB-2018-FURY FURY 9,61 MB 4 2018-02-27
Lanz_And_Teramoon_-_Our_Theory-(LT01)-WEB-2018-BarGhest_INT BarGhest_INT 16,49 MB 4 2018-02-27
Psydelson_-_Turbulent_Minds-(A037)-WEB-2018-BarGhest_INT BarGhest_INT 16,38 MB 4 2018-02-27
Sarolta_Monspart_-_Mother_Superior_Earth-(DNDEP020)-WEB-2018-BarGhest BarGhest 56,60 MB 6 2018-02-27
Kinetick-D_Door_Man-WEB-2018-FURY FURY 11,40 MB 5 2018-02-27
DJ_Stk-Pastel-WEB-2018-SFH SFH 13,43 MB 4 2018-02-27
Cyberx-White_Room_EP-WEB-2018-FURY FURY 96,66 MB 9 2018-02-27
Squeeze_Dj-Parallel-WEB-2018-FURY FURY 62,67 MB 8 2018-02-27
Rootek-Interaction-WEB-2018-FURY FURY 60,47 MB 8 2018-02-27